Alexandria, Ohio
Current Conditions -  °F | °C
As of 8:54 PM on Thursday 20 Nov 2014 (Local Time) from KVTA Reporting Station
Broken Clouds Broken Clouds  
Wind Chill: -9°   Ceiling: 5500
Heat Index: -4°   Visibility: 10mi
Dew Point: -10°   Wind: 9mph
Humidity: 63%   Direction: 270°W
Pressure: 30.16"   Gusts: NA
Location:  40.09°N, 82.61°W
Report Text: KVTA 210154Z AUTO 27008KT 10SM BKN055 M04/M10 A3016 RMK AO2 SLP227 T10391100
Loading
Personal Weather Stations






























Interactive Weather Map New forecast layout! Learn more

10-Day Weather Forecast

Advertisements
Track Severe Weather on mobile